createdAt,value
2023-03-29T00:02:04.046Z,8.30
2023-03-29T00:04:31.249Z,8.40
2023-03-29T00:06:58.015Z,8.50
2023-03-29T00:09:26.626Z,8.40
2023-03-29T00:11:53.530Z,8.40
2023-03-29T00:14:20.339Z,8.50
2023-03-29T00:16:47.261Z,8.50
2023-03-29T00:19:14.102Z,8.50
2023-03-29T00:21:40.840Z,8.60
2023-03-29T00:24:07.759Z,8.60
2023-03-29T00:26:34.785Z,8.60
2023-03-29T00:29:01.668Z,8.60
2023-03-29T00:31:28.468Z,8.60
2023-03-29T00:33:55.732Z,8.50
2023-03-29T00:36:23.225Z,8.60
2023-03-29T00:38:50.089Z,8.60
2023-03-29T00:41:17.001Z,8.60
2023-03-29T00:43:58.795Z,8.70
2023-03-29T00:46:27.204Z,8.70
2023-03-29T00:49:03.813Z,8.70
2023-03-29T00:51:34.274Z,8.70
2023-03-29T00:54:03.318Z,8.70
2023-03-29T00:56:35.203Z,8.70
2023-03-29T00:59:13.775Z,8.70
2023-03-29T01:01:50.288Z,8.70
2023-03-29T01:04:29.303Z,8.80
2023-03-29T01:07:06.613Z,8.80
2023-03-29T01:09:37.767Z,8.90
2023-03-29T01:12:16.987Z,8.90
2023-03-29T01:14:52.722Z,8.90
2023-03-29T01:17:22.228Z,8.80
2023-03-29T01:19:57.946Z,8.80
2023-03-29T01:22:42.651Z,8.80
2023-03-29T01:25:26.179Z,8.80
2023-03-29T01:28:08.809Z,8.80
2023-03-29T01:31:13.079Z,8.80
2023-03-29T01:33:47.395Z,8.80
2023-03-29T01:36:27.098Z,8.80
2023-03-29T01:39:06.050Z,8.80
2023-03-29T01:41:50.740Z,8.80
2023-03-29T01:44:30.628Z,8.80
2023-03-29T01:47:25.896Z,8.80
2023-03-29T01:50:17.616Z,8.80
2023-03-29T01:53:07.878Z,8.80
2023-03-29T01:55:38.347Z,8.80
2023-03-29T01:58:08.378Z,8.80
2023-03-29T02:00:36.177Z,8.70
2023-03-29T02:03:07.714Z,8.70
2023-03-29T02:05:37.584Z,8.60
2023-03-29T02:08:07.419Z,8.60
2023-03-29T02:10:36.619Z,8.50
2023-03-29T02:13:04.183Z,8.50
2023-03-29T02:15:33.310Z,8.50
2023-03-29T02:18:00.164Z,8.60
2023-03-29T02:20:40.471Z,8.60
2023-03-29T02:23:10.375Z,8.60
2023-03-29T02:25:38.328Z,8.70
2023-03-29T02:28:06.783Z,8.70
2023-03-29T02:30:44.154Z,8.70
2023-03-29T02:33:19.345Z,8.80
2023-03-29T02:36:00.589Z,8.80
2023-03-29T02:38:28.430Z,8.80
2023-03-29T02:40:58.067Z,8.80
2023-03-29T02:43:27.429Z,8.90
2023-03-29T02:45:55.752Z,8.90
2023-03-29T02:48:26.602Z,8.90
2023-03-29T02:50:56.708Z,8.90
2023-03-29T02:53:32.269Z,8.90
2023-03-29T02:56:02.078Z,9.00
2023-03-29T02:58:29.463Z,9.00
2023-03-29T03:00:59.051Z,8.90
2023-03-29T03:03:26.016Z,9.00
2023-03-29T03:05:53.878Z,9.10
2023-03-29T03:08:21.088Z,9.10
2023-03-29T03:10:48.453Z,9.00
2023-03-29T03:13:15.459Z,9.00
2023-03-29T03:15:42.858Z,9.10
2023-03-29T03:18:10.571Z,9.00
2023-03-29T03:20:37.366Z,9.10
2023-03-29T03:23:04.180Z,9.10
2023-03-29T03:25:35.095Z,9.00
2023-03-29T03:28:02.445Z,9.10
2023-03-29T03:30:29.418Z,9.10
2023-03-29T03:33:19.735Z,9.10
2023-03-29T03:36:06.467Z,9.10
2023-03-29T03:38:36.059Z,9.10
2023-03-29T03:41:04.271Z,9.20
2023-03-29T03:43:34.042Z,9.20
2023-03-29T03:46:01.401Z,9.20
2023-03-29T03:48:28.354Z,9.20
2023-03-29T03:51:16.910Z,9.10
2023-03-29T03:53:44.122Z,9.20
2023-03-29T03:56:13.871Z,9.20
2023-03-29T03:58:59.133Z,9.30
2023-03-29T04:01:28.055Z,9.30
2023-03-29T04:04:04.542Z,9.20
2023-03-29T04:06:32.507Z,9.20
2023-03-29T04:09:23.258Z,9.20
2023-03-29T04:12:02.522Z,9.20
2023-03-29T04:14:32.123Z,9.30
2023-03-29T04:17:14.672Z,9.30
2023-03-29T04:19:49.330Z,9.30
2023-03-29T04:22:16.338Z,9.30
2023-03-29T04:24:43.523Z,9.30
2023-03-29T04:27:30.242Z,9.30
2023-03-29T04:29:58.893Z,9.20
2023-03-29T04:32:46.066Z,9.30
2023-03-29T04:35:13.091Z,9.30
2023-03-29T04:37:40.331Z,9.30
2023-03-29T04:40:09.925Z,9.30
2023-03-29T04:42:51.557Z,9.30
2023-03-29T04:45:19.016Z,9.30
2023-03-29T04:48:13.169Z,9.30
2023-03-29T04:50:46.722Z,9.30
2023-03-29T04:53:15.119Z,9.30
2023-03-29T04:55:43.566Z,9.40
2023-03-29T04:58:14.812Z,9.50
2023-03-29T05:00:43.823Z,9.30
2023-03-29T05:03:20.959Z,9.30
2023-03-29T05:06:06.548Z,9.40
2023-03-29T05:08:35.326Z,9.40
2023-03-29T05:11:11.550Z,9.40
2023-03-29T05:13:38.545Z,9.40
2023-03-29T05:16:07.682Z,9.40
2023-03-29T05:18:34.688Z,9.40
2023-03-29T05:21:04.210Z,9.50
2023-03-29T05:23:34.218Z,9.50
2023-03-29T05:26:04.024Z,9.40
2023-03-29T05:28:33.659Z,9.40
2023-03-29T05:31:05.749Z,9.50
2023-03-29T05:33:35.388Z,9.50
2023-03-29T05:36:08.789Z,9.50
2023-03-29T05:38:40.590Z,9.50
2023-03-29T05:41:07.892Z,9.50
2023-03-29T05:43:53.285Z,9.50
2023-03-29T05:46:23.737Z,9.60
2023-03-29T05:48:53.592Z,9.60
2023-03-29T05:51:24.406Z,9.60
2023-03-29T05:53:54.640Z,9.60
2023-03-29T05:56:22.402Z,9.60
2023-03-29T05:58:53.736Z,9.70
2023-03-29T06:01:24.414Z,9.70
2023-03-29T06:04:01.804Z,9.70
2023-03-29T06:06:37.147Z,9.70
2023-03-29T06:09:05.234Z,9.70
2023-03-29T06:11:39.211Z,9.80
2023-03-29T06:14:19.427Z,9.80
2023-03-29T06:16:51.625Z,9.80
2023-03-29T06:19:18.740Z,9.90
2023-03-29T06:21:45.970Z,9.90
2023-03-29T06:24:16.789Z,9.90
2023-03-29T06:26:50.367Z,9.90
2023-03-29T06:29:18.013Z,10.00
2023-03-29T06:31:46.818Z,10.00
2023-03-29T06:34:31.948Z,10.00
2023-03-29T06:37:28.981Z,10.00
2023-03-29T06:40:06.532Z,10.10
2023-03-29T06:42:40.676Z,10.10
2023-03-29T06:45:29.319Z,10.10
2023-03-29T06:47:57.625Z,10.20
2023-03-29T06:50:25.509Z,10.20
2023-03-29T06:53:07.876Z,10.20
2023-03-29T06:55:36.044Z,10.20
2023-03-29T06:58:21.800Z,10.20
2023-03-29T07:00:48.715Z,10.30
2023-03-29T07:03:23.383Z,10.30
2023-03-29T07:06:01.152Z,10.30
2023-03-29T07:08:31.741Z,10.30
2023-03-29T07:11:04.167Z,10.40
2023-03-29T07:13:50.946Z,10.30
2023-03-29T07:16:20.396Z,10.40
2023-03-29T07:18:53.352Z,10.40
2023-03-29T07:21:37.952Z,10.40
2023-03-29T07:24:06.660Z,10.50
2023-03-29T07:26:36.045Z,10.50
2023-03-29T07:29:03.040Z,10.60
2023-03-29T07:31:30.569Z,10.70
2023-03-29T07:34:17.643Z,10.60
2023-03-29T07:36:45.076Z,10.40
2023-03-29T07:39:13.556Z,10.30
2023-03-29T07:41:44.056Z,10.60
2023-03-29T07:44:13.697Z,10.70
2023-03-29T07:46:42.691Z,10.80
2023-03-29T07:49:09.818Z,10.90
2023-03-29T07:51:36.955Z,11.00
2023-03-29T07:54:08.486Z,11.20
2023-03-29T07:56:44.365Z,11.40
2023-03-29T07:59:16.798Z,11.40
2023-03-29T08:01:46.282Z,11.50
2023-03-29T08:04:21.851Z,11.60
2023-03-29T08:07:07.266Z,11.60
2023-03-29T08:09:52.696Z,11.60
2023-03-29T08:12:24.976Z,11.60
2023-03-29T08:14:52.145Z,11.60
2023-03-29T08:17:25.550Z,11.70
2023-03-29T08:19:52.364Z,11.60
2023-03-29T08:22:24.682Z,11.50
2023-03-29T08:25:23.604Z,11.50
2023-03-29T08:27:53.436Z,11.60
2023-03-29T08:30:46.602Z,11.70
2023-03-29T08:33:13.400Z,11.70
2023-03-29T08:35:41.205Z,11.60
2023-03-29T08:38:30.874Z,11.60
2023-03-29T08:40:57.878Z,11.60
2023-03-29T08:43:52.567Z,11.50
2023-03-29T08:47:01.098Z,11.60
2023-03-29T08:49:35.917Z,11.60
2023-03-29T08:52:19.603Z,11.70
2023-03-29T08:54:50.510Z,11.80
2023-03-29T08:57:51.538Z,12.10
2023-03-29T09:00:42.941Z,12.10
2023-03-29T09:03:22.241Z,12.30
2023-03-29T09:05:57.679Z,12.50
2023-03-29T09:08:26.650Z,12.60
2023-03-29T09:11:20.205Z,12.60
2023-03-29T09:14:23.872Z,12.50
2023-03-29T09:17:34.077Z,12.60
2023-03-29T09:20:06.339Z,12.70
2023-03-29T09:22:45.440Z,12.80
2023-03-29T09:25:53.536Z,12.80
2023-03-29T09:28:37.041Z,13.00
2023-03-29T09:31:29.675Z,13.10
2023-03-29T09:34:01.635Z,13.20
2023-03-29T09:36:53.178Z,13.20
2023-03-29T09:39:22.615Z,13.20
2023-03-29T09:42:00.040Z,13.20
2023-03-29T09:44:36.879Z,13.30
2023-03-29T09:47:29.477Z,13.50
2023-03-29T09:50:30.276Z,13.70
2023-03-29T09:53:01.110Z,13.90
2023-03-29T09:55:36.306Z,13.90
2023-03-29T09:58:15.212Z,14.10
2023-03-29T10:00:49.800Z,14.20
2023-03-29T10:03:22.203Z,14.30
2023-03-29T10:05:59.215Z,14.30
2023-03-29T10:08:31.400Z,14.60
2023-03-29T10:11:03.447Z,14.90
2023-03-29T10:13:33.359Z,15.00
2023-03-29T10:16:05.865Z,15.00
2023-03-29T10:18:34.339Z,15.00
2023-03-29T10:21:04.089Z,15.00
2023-03-29T10:23:38.227Z,15.10
2023-03-29T10:26:17.806Z,15.20
2023-03-29T10:28:44.853Z,15.20
2023-03-29T10:31:19.822Z,15.20
2023-03-29T10:33:52.814Z,15.40
2023-03-29T10:36:20.595Z,15.70
2023-03-29T10:38:48.040Z,15.90
2023-03-29T10:41:17.198Z,16.00
2023-03-29T10:43:46.763Z,16.00
2023-03-29T10:46:27.080Z,16.10
2023-03-29T10:48:59.367Z,16.10
2023-03-29T10:51:29.993Z,16.00
2023-03-29T10:54:01.356Z,16.10
2023-03-29T10:56:40.526Z,16.40
2023-03-29T10:59:27.873Z,16.40
2023-03-29T11:02:21.152Z,16.50
2023-03-29T11:05:06.003Z,16.50
2023-03-29T11:07:43.511Z,16.60
2023-03-29T11:10:16.341Z,16.50
2023-03-29T11:13:23.544Z,16.60
2023-03-29T11:16:16.514Z,16.50
2023-03-29T11:19:02.465Z,16.50
2023-03-29T11:21:37.105Z,16.50
2023-03-29T11:24:24.086Z,16.40
2023-03-29T11:26:59.797Z,16.50
2023-03-29T11:29:58.636Z,16.60
2023-03-29T11:32:50.203Z,16.80
2023-03-29T11:35:31.545Z,17.00
2023-03-29T11:38:28.956Z,17.00
2023-03-29T11:41:14.631Z,16.90
2023-03-29T11:43:47.777Z,16.90
2023-03-29T11:46:32.308Z,16.90
2023-03-29T11:49:19.395Z,17.00
2023-03-29T11:51:54.326Z,17.10
2023-03-29T11:54:45.763Z,17.20
2023-03-29T11:57:27.084Z,17.40
2023-03-29T12:00:06.760Z,17.50
2023-03-29T12:02:46.274Z,17.50
2023-03-29T12:05:35.019Z,17.50
2023-03-29T12:08:04.640Z,17.60
2023-03-29T12:10:44.205Z,17.60
2023-03-29T12:13:23.059Z,17.70
2023-03-29T12:16:13.433Z,17.70
2023-03-29T12:18:46.399Z,17.80
2023-03-29T12:21:17.775Z,17.90
2023-03-29T12:23:46.296Z,17.90
2023-03-29T12:26:51.689Z,17.90
2023-03-29T12:29:27.572Z,17.90
2023-03-29T12:32:19.373Z,17.90
2023-03-29T12:35:14.110Z,17.50
2023-03-29T12:38:24.629Z,17.40
2023-03-29T12:41:21.720Z,17.30
2023-03-29T12:44:08.974Z,17.10
2023-03-29T12:46:56.916Z,17.10
2023-03-29T12:49:29.459Z,17.20
2023-03-29T12:51:58.753Z,17.30
2023-03-29T12:54:31.477Z,17.50
2023-03-29T12:57:17.967Z,17.60
2023-03-29T12:59:48.285Z,17.70
2023-03-29T13:02:15.235Z,17.80
2023-03-29T13:05:01.122Z,17.90
2023-03-29T13:07:31.909Z,18.00
2023-03-29T13:10:03.114Z,18.20
2023-03-29T13:12:39.049Z,18.20
2023-03-29T13:15:22.084Z,18.30
2023-03-29T13:18:04.000Z,18.30
2023-03-29T13:20:47.814Z,18.30
2023-03-29T13:23:56.102Z,18.20
2023-03-29T13:26:50.275Z,18.20
2023-03-29T13:29:26.007Z,18.20
2023-03-29T13:32:34.609Z,18.10
2023-03-29T13:35:07.247Z,17.90
2023-03-29T13:37:58.420Z,17.80
2023-03-29T13:40:33.212Z,17.60
2023-03-29T13:43:21.743Z,17.60
2023-03-29T13:46:05.776Z,17.50
2023-03-29T13:48:35.822Z,17.50
2023-03-29T13:51:13.960Z,17.60
2023-03-29T13:53:51.739Z,17.60
2023-03-29T13:56:39.184Z,17.70
2023-03-29T13:59:15.372Z,17.70
2023-03-29T14:01:50.492Z,17.80
2023-03-29T14:04:46.620Z,17.70
2023-03-29T14:07:14.951Z,17.70
2023-03-29T14:09:45.907Z,17.60
2023-03-29T14:12:15.136Z,17.60
2023-03-29T14:14:57.809Z,17.50
2023-03-29T14:17:25.600Z,17.50
2023-03-29T14:19:56.449Z,17.50
2023-03-29T14:22:23.457Z,17.60
2023-03-29T14:24:54.646Z,17.30
2023-03-29T14:27:22.293Z,17.50
2023-03-29T14:29:51.124Z,17.40
2023-03-29T14:32:26.984Z,17.30
2023-03-29T14:34:53.932Z,17.30
2023-03-29T14:37:30.594Z,17.30
2023-03-29T14:39:58.973Z,17.30
2023-03-29T14:42:28.471Z,17.30
2023-03-29T14:45:03.957Z,17.10
2023-03-29T14:47:32.962Z,17.20
2023-03-29T14:50:01.443Z,17.20
2023-03-29T14:52:30.379Z,17.30
2023-03-29T14:55:00.813Z,17.50
2023-03-29T14:57:35.438Z,17.60
2023-03-29T15:00:14.242Z,17.50
2023-03-29T15:02:49.845Z,17.50
2023-03-29T15:05:37.430Z,17.50
2023-03-29T15:08:07.472Z,17.50
2023-03-29T15:10:37.585Z,17.50
2023-03-29T15:13:06.679Z,17.40
2023-03-29T15:15:36.706Z,17.30
2023-03-29T15:18:06.757Z,17.20
2023-03-29T15:20:38.779Z,17.10
2023-03-29T15:23:14.433Z,17.10
2023-03-29T15:25:55.789Z,17.20
2023-03-29T15:28:44.624Z,17.30
2023-03-29T15:31:18.072Z,17.40
2023-03-29T15:33:45.567Z,17.40
2023-03-29T15:36:14.995Z,17.30
2023-03-29T15:38:45.080Z,17.20
2023-03-29T15:41:14.218Z,17.30
2023-03-29T15:43:41.854Z,17.30
2023-03-29T15:46:11.902Z,17.30
2023-03-29T15:48:38.782Z,17.30
2023-03-29T15:51:07.002Z,17.30
2023-03-29T15:53:35.035Z,17.30
2023-03-29T15:56:05.345Z,17.30
2023-03-29T15:58:34.294Z,17.30
2023-03-29T16:01:19.140Z,17.30
2023-03-29T16:03:47.845Z,17.40
2023-03-29T16:06:15.996Z,17.50
2023-03-29T16:08:42.827Z,17.30
2023-03-29T16:11:09.753Z,17.40
2023-03-29T16:13:36.581Z,17.30
2023-03-29T16:16:03.706Z,17.30
2023-03-29T16:18:30.877Z,17.20
2023-03-29T16:20:57.598Z,17.20
2023-03-29T16:23:24.277Z,17.20
2023-03-29T16:25:51.205Z,17.10
2023-03-29T16:28:18.007Z,17.10
2023-03-29T16:30:44.707Z,17.10
2023-03-29T16:33:11.563Z,17.10
2023-03-29T16:35:42.334Z,17.00
2023-03-29T16:38:09.543Z,17.00
2023-03-29T16:40:36.737Z,17.00
2023-03-29T16:43:04.479Z,17.00
2023-03-29T16:45:31.510Z,17.00
2023-03-29T16:47:58.582Z,16.90
2023-03-29T16:50:25.553Z,16.90
2023-03-29T16:52:52.634Z,16.80
2023-03-29T16:55:19.641Z,16.80
2023-03-29T16:57:47.683Z,16.80
2023-03-29T17:00:16.901Z,16.80
2023-03-29T17:02:44.040Z,16.80
2023-03-29T17:05:12.328Z,16.80
2023-03-29T17:07:39.434Z,16.70
2023-03-29T17:10:11.491Z,16.70
2023-03-29T17:12:38.761Z,16.60
2023-03-29T17:15:10.780Z,16.60
2023-03-29T17:17:44.287Z,16.70
2023-03-29T17:20:13.851Z,16.60
2023-03-29T17:22:41.783Z,16.70
2023-03-29T17:25:09.294Z,16.60
2023-03-29T17:27:37.809Z,16.60
2023-03-29T17:30:06.301Z,16.50
2023-03-29T17:32:33.104Z,16.40
2023-03-29T17:34:59.858Z,16.30
2023-03-29T17:37:27.795Z,16.30
2023-03-29T17:39:55.145Z,16.20
2023-03-29T17:42:21.940Z,16.20
2023-03-29T17:44:48.689Z,16.10
2023-03-29T17:47:15.909Z,16.00
2023-03-29T17:49:42.637Z,16.10
2023-03-29T17:52:09.517Z,16.10
2023-03-29T17:54:36.473Z,16.00
2023-03-29T17:57:03.407Z,16.00
2023-03-29T17:59:30.242Z,16.00
2023-03-29T18:01:57.375Z,15.90
2023-03-29T18:04:24.160Z,15.90
2023-03-29T18:06:50.806Z,15.80
2023-03-29T18:09:17.564Z,15.70
2023-03-29T18:11:44.231Z,15.80
2023-03-29T18:14:10.984Z,15.70
2023-03-29T18:16:37.680Z,15.60
2023-03-29T18:19:04.793Z,15.60
2023-03-29T18:21:31.562Z,15.50
2023-03-29T18:23:58.337Z,15.50
2023-03-29T18:26:25.687Z,15.50
2023-03-29T18:28:53.255Z,15.50
2023-03-29T18:31:20.258Z,15.60
2023-03-29T18:33:47.571Z,15.60
2023-03-29T18:36:14.767Z,15.70
2023-03-29T18:38:43.800Z,15.70
2023-03-29T18:41:13.271Z,15.70
2023-03-29T18:43:41.286Z,15.70
2023-03-29T18:46:08.597Z,15.70
2023-03-29T18:48:38.686Z,15.60
2023-03-29T18:51:07.609Z,15.60
2023-03-29T18:53:35.741Z,15.60
2023-03-29T18:56:04.259Z,15.70
2023-03-29T18:58:31.343Z,15.50
2023-03-29T19:01:06.083Z,15.50
2023-03-29T19:03:34.650Z,15.60
2023-03-29T19:06:02.681Z,15.40
2023-03-29T19:08:29.752Z,15.40
2023-03-29T19:11:04.414Z,15.40
2023-03-29T19:13:31.605Z,15.50
2023-03-29T19:15:58.780Z,15.40
2023-03-29T19:18:26.020Z,15.50
2023-03-29T19:20:54.233Z,15.50
2023-03-29T19:23:26.948Z,15.50
2023-03-29T19:25:56.167Z,15.50
2023-03-29T19:28:23.815Z,15.50
2023-03-29T19:30:50.768Z,15.60
2023-03-29T19:33:18.501Z,15.50
2023-03-29T19:35:46.159Z,15.50
2023-03-29T19:38:12.909Z,15.50
2023-03-29T19:40:39.623Z,15.40
2023-03-29T19:43:06.799Z,15.50
2023-03-29T19:45:33.569Z,15.40
2023-03-29T19:48:03.255Z,15.40
2023-03-29T19:50:31.880Z,15.50
2023-03-29T19:52:58.667Z,15.50
2023-03-29T19:55:26.725Z,15.50
2023-03-29T19:57:53.554Z,15.60
2023-03-29T20:00:24.284Z,15.50
2023-03-29T20:02:56.458Z,15.40
2023-03-29T20:05:24.123Z,15.40
2023-03-29T20:07:51.249Z,15.30
2023-03-29T20:10:18.321Z,15.30
2023-03-29T20:12:45.221Z,15.30
2023-03-29T20:15:12.028Z,15.30
2023-03-29T20:17:40.755Z,15.30
2023-03-29T20:20:10.032Z,15.20
2023-03-29T20:22:38.016Z,15.20
2023-03-29T20:25:05.594Z,15.20
2023-03-29T20:27:32.481Z,15.30
2023-03-29T20:29:59.223Z,15.30
2023-03-29T20:32:26.042Z,15.20
2023-03-29T20:34:53.053Z,15.20
2023-03-29T20:37:22.849Z,15.20
2023-03-29T20:39:49.781Z,15.20
2023-03-29T20:42:16.516Z,15.10
2023-03-29T20:44:50.342Z,15.20
2023-03-29T20:47:20.089Z,15.20
2023-03-29T20:49:46.891Z,15.10
2023-03-29T20:52:16.567Z,15.10
2023-03-29T20:54:44.884Z,14.90
2023-03-29T20:57:17.424Z,14.90
2023-03-29T20:59:46.403Z,14.80
2023-03-29T21:02:22.749Z,14.70
2023-03-29T21:04:53.367Z,14.80
2023-03-29T21:07:21.418Z,14.90
2023-03-29T21:09:49.806Z,14.80
2023-03-29T21:12:17.385Z,14.80
2023-03-29T21:14:44.607Z,14.60
2023-03-29T21:17:11.463Z,14.90
2023-03-29T21:19:39.311Z,14.70
2023-03-29T21:22:06.632Z,14.80
2023-03-29T21:24:48.925Z,14.80
2023-03-29T21:27:15.820Z,14.80
2023-03-29T21:29:42.441Z,14.70
2023-03-29T21:32:10.645Z,14.70
2023-03-29T21:34:37.437Z,14.70
2023-03-29T21:37:04.294Z,14.70
2023-03-29T21:39:31.603Z,14.70
2023-03-29T21:41:59.351Z,14.80
2023-03-29T21:44:26.331Z,14.90
2023-03-29T21:46:53.476Z,14.90
2023-03-29T21:49:21.064Z,14.80
2023-03-29T21:51:47.755Z,14.80
2023-03-29T21:54:14.427Z,14.80
2023-03-29T21:56:41.395Z,15.00
2023-03-29T21:59:08.225Z,15.00
2023-03-29T22:01:35.031Z,15.10
2023-03-29T22:04:01.822Z,15.10
2023-03-29T22:06:28.604Z,15.20
2023-03-29T22:08:55.525Z,15.10
2023-03-29T22:11:23.239Z,15.10
2023-03-29T22:13:51.939Z,15.10
2023-03-29T22:16:18.793Z,15.10
2023-03-29T22:18:49.047Z,15.10
2023-03-29T22:21:22.616Z,15.10
2023-03-29T22:23:51.809Z,15.10
2023-03-29T22:26:21.308Z,15.10
2023-03-29T22:28:48.091Z,15.10
2023-03-29T22:31:17.904Z,15.10
2023-03-29T22:33:45.449Z,15.10
2023-03-29T22:36:13.704Z,15.00
2023-03-29T22:38:40.517Z,15.20
2023-03-29T22:41:08.142Z,15.20
2023-03-29T22:43:36.546Z,15.30
2023-03-29T22:46:07.856Z,15.30
2023-03-29T22:48:34.894Z,15.30
2023-03-29T22:51:02.011Z,15.30
2023-03-29T22:53:29.079Z,15.50
2023-03-29T22:55:55.885Z,15.50
2023-03-29T22:58:22.956Z,15.60
2023-03-29T23:00:50.956Z,15.50
2023-03-29T23:03:18.179Z,15.50
2023-03-29T23:05:56.837Z,15.60
2023-03-29T23:08:24.955Z,15.60
2023-03-29T23:10:52.691Z,15.60
2023-03-29T23:13:24.103Z,15.50
2023-03-29T23:15:52.865Z,15.50
2023-03-29T23:18:21.084Z,15.50
2023-03-29T23:20:54.504Z,15.50
2023-03-29T23:23:22.095Z,15.50
2023-03-29T23:25:50.815Z,15.40
2023-03-29T23:28:21.456Z,15.40
2023-03-29T23:31:10.455Z,15.30
2023-03-29T23:33:40.334Z,15.20
2023-03-29T23:36:15.305Z,15.10
2023-03-29T23:38:44.927Z,15.10
2023-03-29T23:41:13.076Z,15.10
2023-03-29T23:43:42.300Z,15.00
2023-03-29T23:46:15.259Z,15.00
2023-03-29T23:48:50.007Z,15.00
2023-03-29T23:51:23.066Z,14.90
2023-03-29T23:53:50.527Z,14.80
2023-03-29T23:56:17.457Z,14.80
2023-03-29T23:58:44.484Z,14.90
